Time,TemperatureF,DewpointF,PressureIn,WindDirection,WindDirectionDegrees,WindSpeedMPH,WindSpeedGustMPH,Humidity,HourlyPrecipIn,Conditions,Clouds,dailyrainin,SoftwareType,DateUTC
2013-07-06 00:00:00,69.5,30.0,29.58,North,6,7.0,-999.0,23,-99.99,,,0.00,weatherlink.com 1.10,2013-07-06 07:00:00,
2013-07-06 00:15:00,69.3,31.0,29.58,North,8,3.0,-999.0,24,-99.99,,,0.00,weatherlink.com 1.10,2013-07-06 07:15:00,
2013-07-06 00:30:00,68.8,34.0,29.57,NNE,13,0.0,-999.0,28,-99.99,,,0.00,weatherlink.com 1.10,2013-07-06 07:30:00,
2013-07-06 00:45:00,67.5,34.0,29.57,NNE,30,0.0,-999.0,29,-99.99,,,0.00,weatherlink.com 1.10,2013-07-06 07:45:00,
2013-07-06 01:03:00,66.9,29.0,29.57,NNE,31,0.0,-999.0,24,-99.99,,,0.00,weatherlink.com 1.10,2013-07-06 08:03:00,
2013-07-06 01:15:00,67.3,25.0,29.57,NNE,27,0.0,-999.0,20,-99.99,,,0.00,weatherlink.com 1.10,2013-07-06 08:15:00,
2013-07-06 01:30:00,68.0,25.0,29.57,NNE,23,0.0,-999.0,20,-99.99,,,0.00,weatherlink.com 1.10,2013-07-06 08:30:00,
2013-07-06 01:45:00,69.3,31.0,29.58,North,0,0.0,-999.0,24,-99.99,,,0.00,weatherlink.com 1.10,2013-07-06 08:45:00,
2013-07-06 02:00:00,68.8,32.0,29.56,North,0,0.0,-999.0,26,-99.99,,,0.00,weatherlink.com 1.10,2013-07-06 09:00:00,
2013-07-06 02:15:00,69.0,34.0,29.56,North,1,0.0,-999.0,28,-99.99,,,0.00,weatherlink.com 1.10,2013-07-06 09:15:00,
2013-07-06 02:34:00,68.8,38.0,29.55,North,0,0.0,-999.0,33,-99.99,,,0.00,weatherlink.com 1.10,2013-07-06 09:34:00,
2013-07-06 02:45:00,69.0,37.0,29.55,North,0,1.0,-999.0,31,-99.99,,,0.00,weatherlink.com 1.10,2013-07-06 09:45:00,
2013-07-06 03:00:00,69.2,40.0,29.54,North,0,0.0,-999.0,35,-99.99,,,0.00,weatherlink.com 1.10,2013-07-06 10:00:00,
2013-07-06 03:16:00,70.0,40.0,29.54,North,1,0.0,-999.0,33,-99.99,,,0.00,weatherlink.com 1.10,2013-07-06 10:16:00,
2013-07-06 03:30:00,70.2,35.0,29.51,North,1,0.0,-999.0,28,-99.99,,,0.00,weatherlink.com 1.10,2013-07-06 10:30:00,
2013-07-06 03:45:00,70.2,33.0,29.52,North,0,0.0,-999.0,25,-99.99,,,0.00,weatherlink.com 1.10,2013-07-06 10:45:00,
2013-07-06 04:01:00,69.8,34.0,29.51,North,0,0.0,-999.0,27,-99.99,,,0.00,weatherlink.com 1.10,2013-07-06 11:01:00,
2013-07-06 04:17:00,69.3,36.0,29.53,North,0,0.0,-999.0,29,-99.99,,,0.00,weatherlink.com 1.10,2013-07-06 11:17:00,
2013-07-06 04:31:00,69.2,37.0,29.53,North,0,0.0,-999.0,31,-99.99,,,0.00,weatherlink.com 1.10,2013-07-06 11:31:00,
2013-07-06 04:46:00,69.5,37.0,29.53,North,0,0.0,-999.0,31,-99.99,,,0.00,weatherlink.com 1.10,2013-07-06 11:46:00,
2013-07-06 05:00:00,69.3,39.0,29.52,North,0,0.0,-999.0,33,-99.99,,,0.00,weatherlink.com 1.10,2013-07-06 12:00:00,
2013-07-06 05:15:00,68.3,40.0,29.53,North,359,0.0,-999.0,35,-99.99,,,0.00,weatherlink.com 1.10,2013-07-06 12:15:00,
2013-07-06 05:30:00,68.3,40.0,29.54,North,0,0.0,-999.0,35,-99.99,,,0.00,weatherlink.com 1.10,2013-07-06 12:30:00,
2013-07-06 05:45:00,68.7,40.0,29.54,North,357,0.0,-999.0,35,-99.99,,,0.00,weatherlink.com 1.10,2013-07-06 12:45:00,
2013-07-06 06:00:00,69.3,39.0,29.54,North,359,1.0,-999.0,33,-99.99,,,0.00,weatherlink.com 1.10,2013-07-06 13:00:00,
2013-07-06 06:15:00,69.3,39.0,29.55,North,0,0.0,-999.0,33,-99.99,,,0.00,weatherlink.com 1.10,2013-07-06 13:15:00,
2013-07-06 06:30:00,68.7,39.0,29.56,North,3,0.0,-999.0,34,-99.99,,,0.00,weatherlink.com 1.10,2013-07-06 13:30:00,
2013-07-06 06:45:00,68.2,39.0,29.56,NNE,13,0.0,-999.0,34,-99.99,,,0.00,weatherlink.com 1.10,2013-07-06 13:45:00,
2013-07-06 07:00:00,68.3,39.0,29.58,NNE,18,0.0,-999.0,34,-99.99,,,0.00,weatherlink.com 1.10,2013-07-06 14:00:00,
2013-07-06 07:15:00,69.7,41.0,29.56,NNE,31,0.0,-999.0,35,-99.99,,,0.00,weatherlink.com 1.10,2013-07-06 14:15:00,
2013-07-06 07:30:00,71.2,43.0,29.59,NNE,31,0.0,-999.0,36,-99.99,,,0.00,weatherlink.com 1.10,2013-07-06 14:30:00,
2013-07-06 07:46:00,73.0,41.0,29.58,NE,55,0.0,-999.0,31,-99.99,,,0.00,weatherlink.com 1.10,2013-07-06 14:46:00,
2013-07-06 08:00:00,73.7,40.0,29.57,ESE,119,0.0,-999.0,30,-99.99,,,0.00,weatherlink.com 1.10,2013-07-06 15:00:00,
2013-07-06 08:15:00,75.6,39.0,29.57,North,0,0.0,-999.0,27,-99.99,,,0.00,weatherlink.com 1.10,2013-07-06 15:15:00,
2013-07-06 08:31:00,76.7,40.0,29.56,North,357,0.0,-999.0,27,-99.99,,,0.00,weatherlink.com 1.10,2013-07-06 15:31:00,
2013-07-06 08:45:00,76.3,41.0,29.57,SE,144,3.0,-999.0,28,-99.99,,,0.00,weatherlink.com 1.10,2013-07-06 15:45:00,
2013-07-06 09:00:00,76.7,37.0,29.58,SSE,148,0.0,-999.0,24,-99.99,,,0.00,weatherlink.com 1.10,2013-07-06 16:00:00,
2013-07-06 09:15:00,77.7,36.0,29.58,SE,143,0.0,-999.0,22,-99.99,,,0.00,weatherlink.com 1.10,2013-07-06 16:15:00,
2013-07-06 09:30:00,77.0,35.0,29.58,ESE,110,3.0,-999.0,22,-99.99,,,0.00,weatherlink.com 1.10,2013-07-06 16:30:00,
2013-07-06 10:15:00,78.6,35.0,29.58,North,4,0.0,-999.0,21,-99.99,,,0.00,weatherlink.com 1.10,2013-07-06 17:15:00,
2013-07-06 10:31:00,80.8,31.0,29.58,WSW,237,3.0,-999.0,16,-99.99,,,0.00,weatherlink.com 1.10,2013-07-06 17:31:00,
2013-07-06 10:45:00,81.0,35.0,29.57,West,272,3.0,-999.0,19,-99.99,,,0.00,weatherlink.com 1.10,2013-07-06 17:45:00,
2013-07-06 11:15:00,82.3,40.0,29.57,WSW,257,3.0,-999.0,22,-99.99,,,0.00,weatherlink.com 1.10,2013-07-06 18:15:00,
2013-07-06 11:30:00,82.5,39.0,29.56,WNW,294,6.0,-999.0,21,-99.99,,,0.00,weatherlink.com 1.10,2013-07-06 18:30:00,
2013-07-06 12:15:00,82.7,39.0,29.57,NW,320,5.0,-999.0,21,-99.99,,,0.00,weatherlink.com 1.10,2013-07-06 19:15:00,
2013-07-06 12:33:00,83.7,40.0,29.57,NNE,14,0.0,-999.0,21,-99.99,,,0.00,weatherlink.com 1.10,2013-07-06 19:33:00,
2013-07-06 12:45:00,83.7,41.0,29.57,NW,306,0.0,-999.0,22,-99.99,,,0.00,weatherlink.com 1.10,2013-07-06 19:45:00,
2013-07-06 13:00:00,84.3,41.0,29.57,WNW,301,0.0,-999.0,22,-99.99,,,0.00,weatherlink.com 1.10,2013-07-06 20:00:00,
2013-07-06 13:15:00,84.1,44.0,29.57,WSW,240,0.0,-999.0,24,-99.99,,,0.00,weatherlink.com 1.10,2013-07-06 20:15:00,
2013-07-06 13:31:00,84.7,43.0,29.56,WNW,287,6.0,-999.0,23,-99.99,,,0.00,weatherlink.com 1.10,2013-07-06 20:31:00,
2013-07-06 13:46:00,83.9,43.0,29.55,West,272,5.0,-999.0,24,-99.99,,,0.00,weatherlink.com 1.10,2013-07-06 20:46:00,
2013-07-06 14:00:00,84.3,44.0,29.56,WNW,299,0.0,-999.0,24,-99.99,,,0.00,weatherlink.com 1.10,2013-07-06 21:00:00,
2013-07-06 14:15:00,83.5,44.0,29.55,WNW,288,2.0,-999.0,25,-99.99,,,0.00,weatherlink.com 1.10,2013-07-06 21:15:00,
2013-07-06 14:30:00,83.7,44.0,29.55,WNW,292,6.0,-999.0,25,-99.99,,,0.00,weatherlink.com 1.10,2013-07-06 21:30:00,
2013-07-06 15:00:00,83.3,44.0,29.55,West,280,0.0,-999.0,25,-99.99,,,0.00,weatherlink.com 1.10,2013-07-06 22:00:00,
2013-07-06 16:00:00,82.7,41.0,29.54,SSW,210,0.0,-999.0,23,-99.99,,,0.00,weatherlink.com 1.10,2013-07-06 23:00:00,
2013-07-06 16:45:00,79.0,37.0,29.56,North,357,0.0,-999.0,22,-99.99,,,0.00,weatherlink.com 1.10,2013-07-06 23:45:00,
2013-07-06 17:00:00,79.5,37.0,29.56,NNW,328,0.0,-999.0,22,-99.99,,,0.00,weatherlink.com 1.10,2013-07-07 00:00:00,
2013-07-06 17:15:00,78.5,37.0,29.56,NW,304,2.0,-999.0,22,-99.99,,,0.00,weatherlink.com 1.10,2013-07-07 00:15:00,
2013-07-06 17:30:00,78.8,37.0,29.56,West,263,0.0,-999.0,22,-99.99,,,0.00,weatherlink.com 1.10,2013-07-07 00:30:00,
2013-07-06 18:01:00,77.7,35.0,29.57,WNW,289,0.0,-999.0,21,-99.99,,,0.00,weatherlink.com 1.10,2013-07-07 01:01:00,
2013-07-06 18:15:00,77.6,33.0,29.57,NW,316,0.0,-999.0,20,-99.99,,,0.00,weatherlink.com 1.10,2013-07-07 01:15:00,
2013-07-06 18:30:00,76.2,35.0,29.57,NE,55,0.0,-999.0,22,-99.99,,,0.00,weatherlink.com 1.10,2013-07-07 01:30:00,
2013-07-06 19:46:00,70.5,38.0,29.59,NNW,344,2.0,-999.0,30,-99.99,,,0.00,weatherlink.com 1.10,2013-07-07 02:46:00,
2013-07-06 20:01:00,69.8,39.0,29.59,North,359,5.0,-999.0,33,-99.99,,,0.00,weatherlink.com 1.10,2013-07-07 03:01:00,
2013-07-06 20:31:00,69.0,41.0,29.58,NNW,340,0.0,-999.0,36,-99.99,,,0.00,weatherlink.com 1.10,2013-07-07 03:31:00,
2013-07-06 20:46:00,68.8,41.0,29.58,NNE,21,0.0,-999.0,36,-99.99,,,0.00,weatherlink.com 1.10,2013-07-07 03:46:00,
2013-07-06 21:00:00,68.8,38.0,29.58,North,0,0.0,-999.0,33,-99.99,,,0.00,weatherlink.com 1.10,2013-07-07 04:00:00,
2013-07-06 21:16:00,68.8,37.0,29.59,NNE,16,10.0,-999.0,31,-99.99,,,0.00,weatherlink.com 1.10,2013-07-07 04:16:00,
2013-07-06 21:31:00,69.2,37.0,29.59,NNW,336,1.0,-999.0,31,-99.99,,,0.00,weatherlink.com 1.10,2013-07-07 04:31:00,
2013-07-06 21:46:00,69.0,37.0,29.60,NNE,27,1.0,-999.0,31,-99.99,,,0.00,weatherlink.com 1.10,2013-07-07 04:46:00,
2013-07-06 22:01:00,68.8,38.0,29.60,North,0,0.0,-999.0,32,-99.99,,,0.00,weatherlink.com 1.10,2013-07-07 05:01:00,
2013-07-06 22:18:00,68.5,38.0,29.58,North,7,3.0,-999.0,33,-99.99,,,0.00,weatherlink.com 1.10,2013-07-07 05:18:00,
2013-07-06 22:31:00,68.2,39.0,29.58,North,359,0.0,-999.0,35,-99.99,,,0.00,weatherlink.com 1.10,2013-07-07 05:31:00,
2013-07-06 22:46:00,68.0,41.0,29.59,North,1,0.0,-999.0,37,-99.99,,,0.00,weatherlink.com 1.10,2013-07-07 05:46:00,
2013-07-06 23:01:00,67.7,41.0,29.58,North,352,7.0,-999.0,38,-99.99,,,0.00,weatherlink.com 1.10,2013-07-07 06:01:00,
2013-07-06 23:16:00,67.5,42.0,29.58,North,0,1.0,-999.0,39,-99.99,,,0.00,weatherlink.com 1.10,2013-07-07 06:16:00,
2013-07-06 23:31:00,67.0,41.0,29.57,North,0,1.0,-999.0,39,-99.99,,,0.00,weatherlink.com 1.10,2013-07-07 06:31:00,
2013-07-06 23:46:00,66.2,42.0,29.58,NNE,13,0.0,-999.0,41,-99.99,,,0.00,weatherlink.com 1.10,2013-07-07 06:46:00,